Kullen, Sweden

4:00 AM CET on November 21, 2014 (GMT +0100)
Kullabygden | Change Station
CLOSE
Current Station
Personal Weather Station
Location: Hoganas Municipality, Skane
Elevation: 36 ft
Nearby Weather Stations

Elev 36 ft 56.23 °N, 12.68 °E | Updated 5 seconds ago

Overcast
Overcast
43.5 °F
Feels Like 44 °F
N
0.0
Wind Variable Wind from North
Gusts 0.0 mph

Today
High -- | Low -- °F
--% Chance of Precip.
Yesterday
High -- | Low -- °F
Precip. -- in
8:00 AM 3:51 PM
Waning Crescent, 2% visible
Pressure 30.33 in
Visibility 3.7 miles
Clouds Overcast 2300 ft
Windchill 44 °F
Dew Point 36 °F
Humidity 76%
Rainfall 0.00 in
Snow Depth Not available.
UV 0 out of 12
Pollen Not available.
Air Quality Not available.
Flu Activity Not available.
METAR ESTA 210250Z AUTO 06001KT 6000 BR OVC023/// 05/04 Q1027

More Conditions Fewer Conditions

Pressure 30.33 in
Visibility 3.7 miles
Clouds Overcast 2300 ft
Windchill 44 °F
Dew Point 36 °F
Humidity 76%
Rainfall 0.00 in
Snow Depth Not available.
UV 0 out of 12
Pollen Not available.
Air Quality Not available.
Flu Activity Not available.
METAR ESTA 210250Z AUTO 06001KT 6000 BR OVC023/// 05/04 Q1027

More Conditions Fewer Conditions

10-Day Weather Forecast

Almanac

Astronomy

Nov. 21, 2014 Rise Set
Actual Time
Civil Twilight
Nautical Twilight
Astronomical Twilight
Moon
Length of Visible Light
Length of Day
Tomorrow will be .
, % of the Moon is Illuminated

Today's Extremes

Country Highs Country Lows

Community

WunderPhotos

Upload Photos

1,772,609 photos uploaded!

WunderBlogs® & News

Nearby

Air Quality

  Air Quality AQ Index Pollutant
Not available.

Snow Depth

Station Depth Elevation

Earthquake Activity

City Distance Mag. Time & Date
Minimum magnitude displayed is 2.5.

Coastal Water Temperatures

Place Temperature

Nearby Weather Stations